createdAt,value
2023-01-05T00:02:24.780Z,9.66
2023-01-05T00:05:32.829Z,9.60
2023-01-05T00:08:40.767Z,9.50
2023-01-05T00:11:48.866Z,9.45
2023-01-05T00:14:57.011Z,9.39
2023-01-05T00:18:05.558Z,9.32
2023-01-05T00:21:13.455Z,9.27
2023-01-05T00:24:21.545Z,9.34
2023-01-05T00:27:29.749Z,9.39
2023-01-05T00:30:37.684Z,9.43
2023-01-05T00:33:46.149Z,9.50
2023-01-05T00:36:54.063Z,9.57
2023-01-05T00:40:01.805Z,9.61
2023-01-05T00:43:09.933Z,9.58
2023-01-05T00:46:17.677Z,9.56
2023-01-05T00:49:26.004Z,9.53
2023-01-05T00:52:34.228Z,9.52
2023-01-05T00:55:41.806Z,9.52
2023-01-05T00:58:50.079Z,9.52
2023-01-05T01:01:58.167Z,9.49
2023-01-05T01:05:06.617Z,9.53
2023-01-05T01:08:14.491Z,9.53
2023-01-05T01:11:22.375Z,9.53
2023-01-05T01:14:30.689Z,9.57
2023-01-05T01:17:38.655Z,9.58
2023-01-05T01:20:46.586Z,9.61
2023-01-05T01:23:54.301Z,9.58
2023-01-05T01:27:02.182Z,9.63
2023-01-05T01:30:10.418Z,9.67
2023-01-05T01:33:18.067Z,9.68
2023-01-05T01:37:06.680Z,9.76
2023-01-05T01:40:15.105Z,9.73
2023-01-05T01:43:23.038Z,9.73
2023-01-05T01:46:30.365Z,9.71
2023-01-05T01:49:37.992Z,9.71
2023-01-05T01:52:46.319Z,9.75
2023-01-05T01:55:53.375Z,9.70
2023-01-05T01:59:01.388Z,9.66
2023-01-05T02:02:09.202Z,9.66
2023-01-05T02:05:16.489Z,9.68
2023-01-05T02:08:24.582Z,9.66
2023-01-05T02:11:32.017Z,9.64
2023-01-05T02:14:39.640Z,9.70
2023-01-05T02:17:47.551Z,9.75
2023-01-05T02:20:55.025Z,9.76
2023-01-05T02:24:02.574Z,9.71
2023-01-05T02:27:10.274Z,9.70
2023-01-05T02:30:18.209Z,9.71
2023-01-05T02:33:25.860Z,9.79
2023-01-05T02:36:33.553Z,9.81
2023-01-05T02:39:41.330Z,9.79
2023-01-05T02:42:48.840Z,9.75
2023-01-05T02:45:56.427Z,9.71
2023-01-05T02:49:04.286Z,9.73
2023-01-05T02:52:12.161Z,9.70
2023-01-05T02:55:20.050Z,9.71
2023-01-05T02:58:28.004Z,9.71
2023-01-05T03:01:35.451Z,9.70
2023-01-05T03:04:43.662Z,9.64
2023-01-05T03:07:51.584Z,9.53
2023-01-05T03:10:58.870Z,9.45
2023-01-05T03:14:06.624Z,9.35
2023-01-05T03:17:14.528Z,9.30
2023-01-05T03:20:22.309Z,9.25
2023-01-05T03:23:30.379Z,9.23
2023-01-05T03:26:38.622Z,9.18
2023-01-05T03:29:46.326Z,9.13
2023-01-05T03:32:53.989Z,9.09
2023-01-05T03:36:01.605Z,9.09
2023-01-05T03:39:09.390Z,9.05
2023-01-05T03:42:17.256Z,9.06
2023-01-05T03:45:25.268Z,9.06
2023-01-05T03:48:32.601Z,9.06
2023-01-05T03:51:42.171Z,9.06
2023-01-05T03:54:49.762Z,9.05
2023-01-05T03:57:57.627Z,9.09
2023-01-05T04:01:05.453Z,9.05
2023-01-05T04:04:13.103Z,9.05
2023-01-05T04:07:21.286Z,9.05
2023-01-05T04:10:29.016Z,9.06
2023-01-05T04:13:36.661Z,9.06
2023-01-05T04:16:44.137Z,9.09
2023-01-05T04:19:52.318Z,9.10
2023-01-05T04:23:00.799Z,9.13
2023-01-05T04:26:08.038Z,9.13
2023-01-05T04:29:16.008Z,9.15
2023-01-05T04:32:23.652Z,9.15
2023-01-05T04:35:30.858Z,9.15
2023-01-05T04:38:39.032Z,9.15
2023-01-05T04:41:46.884Z,9.16
2023-01-05T04:44:54.285Z,9.16
2023-01-05T04:48:02.368Z,9.20
2023-01-05T04:51:10.106Z,9.21
2023-01-05T04:54:17.822Z,9.23
2023-01-05T04:57:25.868Z,9.20
2023-01-05T05:00:33.721Z,9.21
2023-01-05T05:03:41.721Z,9.20
2023-01-05T05:06:49.819Z,9.18
2023-01-05T05:09:57.307Z,9.16
2023-01-05T05:13:05.168Z,9.16
2023-01-05T05:16:13.138Z,9.18
2023-01-05T05:19:20.817Z,9.16
2023-01-05T05:22:28.431Z,9.13
2023-01-05T05:25:37.288Z,9.06
2023-01-05T05:28:45.364Z,9.02
2023-01-05T05:31:53.132Z,9.01
2023-01-05T05:35:00.400Z,8.99
2023-01-05T05:38:08.223Z,8.94
2023-01-05T05:41:16.011Z,8.86
2023-01-05T05:44:23.532Z,8.79
2023-01-05T05:47:31.730Z,8.84
2023-01-05T05:50:39.435Z,8.87
2023-01-05T05:53:46.755Z,8.87
2023-01-05T05:56:54.854Z,8.93
2023-01-05T06:00:02.145Z,8.94
2023-01-05T06:03:10.175Z,8.94
2023-01-05T06:06:18.360Z,8.96
2023-01-05T06:09:26.162Z,8.96
2023-01-05T06:12:34.219Z,8.91
2023-01-05T06:15:42.421Z,8.88
2023-01-05T06:18:50.000Z,8.88
2023-01-05T06:21:57.907Z,8.90
2023-01-05T06:25:05.665Z,8.94
2023-01-05T06:28:19.948Z,8.96
2023-01-05T06:31:17.318Z,8.94
2023-01-05T06:34:24.969Z,8.99
2023-01-05T06:37:32.919Z,9.01
2023-01-05T06:40:40.243Z,9.04
2023-01-05T06:43:47.888Z,9.10
2023-01-05T06:46:56.184Z,9.06
2023-01-05T06:50:03.971Z,9.05
2023-01-05T06:53:11.450Z,9.02
2023-01-05T06:56:19.295Z,9.05
2023-01-05T06:59:26.957Z,9.05
2023-01-05T07:02:34.505Z,9.04
2023-01-05T07:05:42.468Z,9.01
2023-01-05T07:08:49.724Z,8.94
2023-01-05T07:11:57.739Z,8.87
2023-01-05T07:15:05.538Z,8.86
2023-01-05T07:18:13.292Z,8.84
2023-01-05T07:21:21.042Z,8.83
2023-01-05T07:24:28.747Z,8.81
2023-01-05T07:27:36.033Z,8.83
2023-01-05T07:30:43.598Z,8.86
2023-01-05T07:33:51.116Z,8.87
2023-01-05T07:36:58.783Z,8.87
2023-01-05T07:40:06.623Z,8.84
2023-01-05T07:43:14.400Z,8.83
2023-01-05T07:46:21.949Z,8.84
2023-01-05T07:49:29.554Z,8.86
2023-01-05T07:52:37.811Z,8.88
2023-01-05T07:55:45.369Z,8.88
2023-01-05T07:58:53.189Z,8.87
2023-01-05T08:02:01.382Z,8.93
2023-01-05T08:05:08.747Z,8.94
2023-01-05T08:08:22.234Z,8.97
2023-01-05T08:11:20.936Z,8.97
2023-01-05T08:14:28.658Z,8.96
2023-01-05T08:17:36.499Z,8.99
2023-01-05T08:20:44.299Z,9.02
2023-01-05T08:23:52.054Z,9.04
2023-01-05T08:26:59.602Z,9.04
2023-01-05T08:30:07.621Z,9.02
2023-01-05T08:33:14.823Z,9.02
2023-01-05T08:36:22.813Z,9.02
2023-01-05T08:39:30.779Z,9.04
2023-01-05T08:42:38.139Z,9.10
2023-01-05T08:45:46.174Z,9.12
2023-01-05T08:48:54.040Z,9.16
2023-01-05T08:52:01.147Z,9.23
2023-01-05T08:55:09.092Z,9.28
2023-01-05T08:58:16.520Z,9.28
2023-01-05T09:01:24.063Z,9.32
2023-01-05T09:04:32.133Z,9.31
2023-01-05T09:07:39.583Z,9.30
2023-01-05T09:10:47.330Z,9.25
2023-01-05T09:13:55.307Z,9.28
2023-01-05T09:17:07.433Z,9.32
2023-01-05T09:20:04.918Z,9.31
2023-01-05T09:23:12.565Z,9.32
2023-01-05T09:26:20.535Z,9.35
2023-01-05T09:29:28.050Z,9.34
2023-01-05T09:32:35.587Z,9.32
2023-01-05T09:35:43.877Z,9.38
2023-01-05T09:38:51.196Z,9.35
2023-01-05T09:41:59.256Z,9.34
2023-01-05T09:45:07.402Z,9.31
2023-01-05T09:48:14.751Z,9.30
2023-01-05T09:51:22.720Z,9.31
2023-01-05T09:54:30.710Z,9.30
2023-01-05T09:57:38.256Z,9.25
2023-01-05T10:00:45.572Z,9.28
2023-01-05T10:04:03.465Z,9.32
2023-01-05T10:06:58.315Z,9.34
2023-01-05T10:10:05.998Z,9.35
2023-01-05T10:13:13.702Z,9.32
2023-01-05T10:16:27.545Z,9.35
2023-01-05T10:19:25.539Z,9.42
2023-01-05T10:22:38.423Z,9.45
2023-01-05T10:25:36.153Z,9.43
2023-01-05T10:28:43.290Z,9.45
2023-01-05T10:31:51.109Z,9.46
2023-01-05T10:34:59.473Z,9.46
2023-01-05T10:38:06.688Z,9.32
2023-01-05T10:41:14.852Z,8.79
2023-01-05T10:44:22.888Z,8.35
2023-01-05T10:47:30.112Z,8.07
2023-01-05T10:50:38.067Z,7.92
2023-01-05T10:53:45.652Z,7.79
2023-01-05T10:56:53.134Z,7.62
2023-01-05T11:00:01.570Z,7.60
2023-01-05T11:03:09.228Z,7.62
2023-01-05T11:06:16.845Z,7.62
2023-01-05T11:09:24.882Z,7.59
2023-01-05T11:12:32.444Z,7.56
2023-01-05T11:15:40.260Z,7.52
2023-01-05T11:18:48.097Z,7.55
2023-01-05T11:22:01.704Z,7.56
2023-01-05T11:24:59.023Z,7.62
2023-01-05T11:28:06.782Z,7.66
2023-01-05T11:31:14.259Z,7.72
2023-01-05T11:34:22.018Z,7.79
2023-01-05T11:37:29.598Z,7.87
2023-01-05T11:40:37.375Z,7.92
2023-01-05T11:43:44.984Z,7.97
2023-01-05T11:46:52.592Z,8.00
2023-01-05T11:50:05.323Z,8.02
2023-01-05T11:53:04.245Z,7.97
2023-01-05T11:56:12.018Z,7.94
2023-01-05T11:59:20.031Z,7.93
2023-01-05T12:02:27.254Z,7.96
2023-01-05T12:05:35.089Z,7.94
2023-01-05T12:08:42.828Z,7.93
2023-01-05T12:11:49.872Z,7.93
2023-01-05T12:14:58.040Z,7.99
2023-01-05T12:18:05.551Z,8.03
2023-01-05T12:21:13.142Z,8.03
2023-01-05T12:24:21.269Z,8.07
2023-01-05T12:27:28.731Z,8.10
2023-01-05T12:36:46.187Z,8.11
2023-01-05T12:39:53.736Z,8.17
2023-01-05T12:43:01.015Z,8.12
2023-01-05T12:46:09.096Z,8.11
2023-01-05T12:49:16.657Z,8.14
2023-01-05T12:52:24.218Z,8.11
2023-01-05T12:55:32.050Z,8.08
2023-01-05T12:58:39.689Z,8.07
2023-01-05T13:01:47.399Z,8.08
2023-01-05T13:04:56.617Z,8.07
2023-01-05T13:08:04.060Z,8.08
2023-01-05T13:11:12.020Z,8.04
2023-01-05T13:14:19.950Z,8.08
2023-01-05T13:17:27.240Z,8.08
2023-01-05T13:20:35.242Z,8.10
2023-01-05T13:23:43.004Z,8.14
2023-01-05T13:26:50.182Z,8.15
2023-01-05T13:29:58.193Z,8.14
2023-01-05T13:33:06.012Z,8.18
2023-01-05T13:36:13.766Z,8.20
2023-01-05T13:39:21.398Z,8.20
2023-01-05T13:42:29.128Z,8.22
2023-01-05T13:45:37.044Z,8.22
2023-01-05T13:48:57.538Z,8.25
2023-01-05T13:51:49.383Z,8.28
2023-01-05T13:55:01.355Z,8.29
2023-01-05T13:57:58.481Z,8.29
2023-01-05T14:01:06.159Z,8.29
2023-01-05T14:04:14.519Z,8.29
2023-01-05T14:07:21.887Z,8.26
2023-01-05T14:10:30.043Z,8.22
2023-01-05T14:13:37.713Z,8.21
2023-01-05T14:16:45.013Z,8.20
2023-01-05T14:19:52.880Z,8.21
2023-01-05T14:23:00.839Z,8.21
2023-01-05T14:26:07.965Z,8.20
2023-01-05T14:29:16.032Z,8.20
2023-01-05T14:32:23.676Z,8.20
2023-01-05T14:35:31.208Z,8.18
2023-01-05T14:38:39.044Z,8.18
2023-01-05T14:41:46.845Z,8.20
2023-01-05T14:44:54.523Z,8.21
2023-01-05T14:48:02.134Z,8.21
2023-01-05T14:51:10.090Z,8.21
2023-01-05T14:54:17.808Z,8.21
2023-01-05T14:57:25.263Z,8.25
2023-01-05T15:00:33.597Z,8.26
2023-01-05T15:03:41.240Z,8.28
2023-01-05T15:06:48.748Z,8.28
2023-01-05T15:09:56.691Z,8.26
2023-01-05T15:13:03.843Z,8.26
2023-01-05T15:19:20.495Z,8.25
2023-01-05T15:22:38.074Z,8.21
2023-01-05T15:25:32.647Z,8.17
2023-01-05T15:28:40.597Z,8.15
2023-01-05T15:31:49.064Z,8.12
2023-01-05T15:34:57.247Z,8.11
2023-01-05T15:41:12.440Z,8.08
2023-01-05T15:44:20.481Z,8.10
2023-01-05T15:47:28.011Z,8.08
2023-01-05T15:50:35.763Z,8.07
2023-01-05T15:53:43.746Z,8.10
2023-01-05T15:56:51.115Z,8.08
2023-01-05T15:59:58.914Z,8.08
2023-01-05T16:03:06.024Z,8.04
2023-01-05T16:06:14.008Z,8.03
2023-01-05T16:09:21.886Z,8.03
2023-01-05T16:12:28.953Z,8.02
2023-01-05T16:15:36.979Z,7.96
2023-01-05T16:18:44.836Z,7.99
2023-01-05T16:21:52.198Z,7.96
2023-01-05T16:25:00.264Z,7.92
2023-01-05T16:28:08.842Z,7.89
2023-01-05T16:31:16.618Z,7.85
2023-01-05T16:34:24.595Z,7.82
2023-01-05T16:37:32.238Z,7.79
2023-01-05T16:40:39.399Z,7.75
2023-01-05T16:43:47.548Z,7.74
2023-01-05T16:46:54.951Z,7.74
2023-01-05T16:50:02.417Z,7.72
2023-01-05T16:53:10.235Z,7.72
2023-01-05T16:56:17.631Z,7.72
2023-01-05T16:59:25.113Z,7.72
2023-01-05T17:02:32.692Z,7.72
2023-01-05T17:05:40.659Z,7.71
2023-01-05T17:08:48.110Z,7.71
2023-01-05T17:11:55.790Z,7.74
2023-01-05T17:15:03.795Z,7.71
2023-01-05T17:18:11.681Z,7.69
2023-01-05T17:21:19.421Z,7.71
2023-01-05T17:24:27.221Z,7.71
2023-01-05T17:27:34.651Z,7.71
2023-01-05T17:30:42.118Z,7.69
2023-01-05T17:33:50.126Z,7.69
2023-01-05T17:36:57.403Z,7.71
2023-01-05T17:40:05.264Z,7.69
2023-01-05T17:43:12.835Z,7.71
2023-01-05T17:46:20.777Z,7.71
2023-01-05T17:52:35.644Z,7.72
2023-01-05T17:55:43.589Z,7.75
2023-01-05T17:58:51.570Z,7.77
2023-01-05T18:01:59.488Z,7.79
2023-01-05T18:05:07.492Z,7.79
2023-01-05T18:08:14.910Z,7.79
2023-01-05T18:11:23.099Z,7.79
2023-01-05T18:14:30.914Z,7.82
2023-01-05T18:17:38.299Z,7.81
2023-01-05T18:20:45.849Z,7.81
2023-01-05T18:23:53.926Z,7.82
2023-01-05T18:27:01.377Z,7.82
2023-01-05T18:30:09.639Z,7.81
2023-01-05T18:33:17.459Z,7.81
2023-01-05T18:36:24.958Z,7.82
2023-01-05T18:39:32.769Z,7.79
2023-01-05T18:42:40.739Z,7.79
2023-01-05T18:45:49.329Z,7.77
2023-01-05T18:48:58.370Z,7.75
2023-01-05T18:52:06.543Z,7.72
2023-01-05T18:55:14.739Z,7.72
2023-01-05T18:58:22.556Z,7.69
2023-01-05T19:01:30.274Z,7.72
2023-01-05T19:04:37.976Z,7.75
2023-01-05T19:07:45.575Z,7.74
2023-01-05T19:10:53.750Z,7.77
2023-01-05T19:14:01.379Z,7.75
2023-01-05T19:17:08.796Z,7.75
2023-01-05T19:20:16.425Z,7.74
2023-01-05T19:23:24.747Z,7.72
2023-01-05T19:26:32.290Z,7.72
2023-01-05T19:29:40.039Z,7.74
2023-01-05T19:32:47.777Z,7.74
2023-01-05T19:35:55.963Z,7.74
2023-01-05T19:39:03.420Z,7.72
2023-01-05T19:42:11.230Z,7.71
2023-01-05T19:45:19.648Z,7.69
2023-01-05T19:48:27.341Z,7.66
2023-01-05T19:51:35.254Z,7.63
2023-01-05T19:54:42.997Z,7.63
2023-01-05T19:57:50.724Z,7.63
2023-01-05T20:00:58.358Z,7.63
2023-01-05T20:04:06.419Z,7.62
2023-01-05T20:07:13.994Z,7.60
2023-01-05T20:10:21.677Z,7.62
2023-01-05T20:13:29.395Z,7.62
2023-01-05T20:16:36.972Z,7.60
2023-01-05T20:19:44.944Z,7.60
2023-01-05T20:22:52.934Z,7.62
2023-01-05T20:26:00.167Z,7.59
2023-01-05T20:29:08.396Z,7.59
2023-01-05T20:32:16.034Z,7.58
2023-01-05T20:35:23.492Z,7.58
2023-01-05T20:38:31.551Z,7.58
2023-01-05T20:41:38.997Z,7.56
2023-01-05T20:44:47.138Z,7.56
2023-01-05T20:47:55.177Z,7.55
2023-01-05T20:51:02.475Z,7.53
2023-01-05T20:54:10.435Z,7.52
2023-01-05T20:57:18.556Z,7.50
2023-01-05T21:00:26.058Z,7.49
2023-01-05T21:03:34.048Z,7.50
2023-01-05T21:06:41.621Z,7.52
2023-01-05T21:09:49.635Z,7.52
2023-01-05T21:12:58.120Z,7.49
2023-01-05T21:16:03.101Z,7.49
2023-01-05T21:19:11.011Z,7.45
2023-01-05T21:22:18.842Z,7.41
2023-01-05T21:25:26.523Z,7.38
2023-01-05T21:28:33.984Z,7.34
2023-01-05T21:31:41.240Z,7.27
2023-01-05T21:34:49.373Z,7.24
2023-01-05T21:37:57.204Z,7.20
2023-01-05T21:41:04.545Z,7.23
2023-01-05T21:44:12.293Z,7.26
2023-01-05T21:47:20.408Z,7.29
2023-01-05T21:50:27.643Z,7.34
2023-01-05T21:53:35.099Z,7.34
2023-01-05T21:56:42.695Z,7.34
2023-01-05T21:59:50.540Z,7.38
2023-01-05T22:02:58.571Z,7.42
2023-01-05T22:06:05.748Z,7.42
2023-01-05T22:09:13.214Z,7.42
2023-01-05T22:12:20.792Z,7.42
2023-01-05T22:15:28.274Z,7.44
2023-01-05T22:18:35.662Z,7.42
2023-01-05T22:21:43.241Z,7.42
2023-01-05T22:24:50.932Z,7.44
2023-01-05T22:27:58.420Z,7.45
2023-01-05T22:31:06.124Z,7.47
2023-01-05T22:34:14.187Z,7.49
2023-01-05T22:37:21.727Z,7.52
2023-01-05T22:40:28.934Z,7.53
2023-01-05T22:43:36.903Z,7.53
2023-01-05T22:46:44.421Z,7.55
2023-01-05T22:49:51.843Z,7.58
2023-01-05T22:52:59.571Z,7.58
2023-01-05T22:56:07.151Z,7.60
2023-01-05T22:59:14.322Z,7.63
2023-01-05T23:02:22.432Z,7.63
2023-01-05T23:05:29.902Z,7.67
2023-01-05T23:08:37.364Z,7.71
2023-01-05T23:11:46.357Z,7.71
2023-01-05T23:14:54.174Z,7.74
2023-01-05T23:18:01.910Z,7.75
2023-01-05T23:21:09.648Z,7.75
2023-01-05T23:24:17.477Z,7.78
2023-01-05T23:27:24.986Z,7.79
2023-01-05T23:30:32.534Z,7.79
2023-01-05T23:33:40.325Z,7.78
2023-01-05T23:36:47.832Z,7.81
2023-01-05T23:39:55.312Z,7.79
2023-01-05T23:43:02.995Z,7.81
2023-01-05T23:46:10.152Z,7.82
2023-01-05T23:49:18.008Z,7.82
2023-01-05T23:52:25.934Z,7.84
2023-01-05T23:55:33.183Z,7.84
2023-01-05T23:58:41.043Z,7.87
